Time;durP1;ratioP1;P1;durP2;ratioP2;P2;SDS_P1;SDS_P2;PMS_P1;PMS_P2;Temp;Humidity;BMP_temperature;BMP_pressure;BME280_temperature;BME280_humidity;BME280_pressure;Samples;Min_cycle;Max_cycle;Signal;HPM_P1;HPM_P2
2021/07/10 00:00:20;;;;;;;19.35;9.07;;;;;;;;;;5111229;28;20140;-60
2021/07/10 00:03:06;;;;;;;19.20;9.60;;;;;;;;;;5111680;28;20138;-62
2021/07/10 00:05:32;;;;;;;23.30;9.48;;;;;;;;;;5095473;28;20491;-62
2021/07/10 00:07:58;;;;;;;28.58;9.90;;;;;;;;;;5113671;28;20039;-62
2021/07/10 00:10:25;;;;;;;16.50;8.70;;;;;;;;;;5110243;28;20051;-62
2021/07/10 00:12:51;;;;;;;17.17;9.80;;;;;;;;;;5104537;28;20091;-62
2021/07/10 00:15:19;;;;;;;17.33;9.88;;;;;;;;;;5111112;28;20054;-62
2021/07/10 00:17:45;;;;;;;22.17;9.82;;;;;;;;;;5111307;28;20047;-62
2021/07/10 00:20:12;;;;;;;15.75;9.60;;;;;;;;;;5112495;28;20109;-62
2021/07/10 00:22:39;;;;;;;21.45;8.35;;;;;;;;;;5112604;28;20086;-62
2021/07/10 00:25:06;;;;;;;20.00;9.82;;;;;;;;;;5111035;28;20043;-62
2021/07/10 00:27:32;;;;;;;18.83;9.25;;;;;;;;;;5110615;28;20495;-62
2021/07/10 00:29:58;;;;;;;19.20;10.32;;;;;;;;;;5091354;28;20040;-62
2021/07/10 00:32:25;;;;;;;16.65;9.75;;;;;;;;;;5111114;28;20082;-62
2021/07/10 00:34:51;;;;;;;23.90;10.45;;;;;;;;;;5113229;28;20043;-62
2021/07/10 00:37:17;;;;;;;21.00;10.45;;;;;;;;;;5111114;28;20052;-62
2021/07/10 00:39:43;;;;;;;21.77;10.75;;;;;;;;;;5110934;28;20051;-62
2021/07/10 00:42:10;;;;;;;19.65;11.60;;;;;;;;;;5110877;28;20067;-62
2021/07/10 00:44:36;;;;;;;24.42;11.27;;;;;;;;;;5111052;28;20040;-62
2021/07/10 00:47:02;;;;;;;23.73;10.43;;;;;;;;;;5113235;28;20039;-62
2021/07/10 00:49:29;;;;;;;17.38;10.18;;;;;;;;;;5109828;28;20074;-62
2021/07/10 00:51:55;;;;;;;21.63;11.18;;;;;;;;;;5111070;28;20066;-62
2021/07/10 00:54:21;;;;;;;18.98;11.02;;;;;;;;;;5091091;28;20075;-62
2021/07/10 00:56:48;;;;;;;18.60;10.00;;;;;;;;;;5110693;28;20047;-62
2021/07/10 00:59:14;;;;;;;17.45;10.48;;;;;;;;;;5111482;28;20047;-63
2021/07/10 01:01:43;;;;;;;21.23;10.85;;;;;;;;;;5112422;28;20494;-62
2021/07/10 01:04:09;;;;;;;29.05;12.25;;;;;;;;;;5092627;28;20054;-62
2021/07/10 01:06:39;;;;;;;19.77;11.75;;;;;;;;;;5110792;28;20104;-62
2021/07/10 01:09:06;;;;;;;24.77;11.90;;;;;;;;;;5110700;28;20430;-62
2021/07/10 01:11:32;;;;;;;21.90;12.40;;;;;;;;;;5094413;28;20090;-62
2021/07/10 01:13:59;;;;;;;20.92;11.63;;;;;;;;;;5094693;28;20047;-62
2021/07/10 01:16:25;;;;;;;24.33;11.52;;;;;;;;;;5110647;28;20066;-62
2021/07/10 01:18:51;;;;;;;20.10;11.00;;;;;;;;;;5110729;28;20505;-62
2021/07/10 01:21:18;;;;;;;22.48;11.85;;;;;;;;;;5110637;28;20047;-62
2021/07/10 01:23:44;;;;;;;21.45;12.18;;;;;;;;;;5110689;28;20043;-62
2021/07/10 01:26:10;;;;;;;30.55;13.20;;;;;;;;;;5103959;28;20463;-61
2021/07/10 01:28:36;;;;;;;19.63;11.27;;;;;;;;;;5090019;28;20052;-62
2021/07/10 01:31:03;;;;;;;30.27;11.88;;;;;;;;;;5090109;28;20380;-62
2021/07/10 01:33:30;;;;;;;22.02;11.75;;;;;;;;;;5090263;28;20097;-62
2021/07/10 01:35:56;;;;;;;26.42;12.40;;;;;;;;;;5090160;28;20061;-62
2021/07/10 01:38:22;;;;;;;24.83;12.23;;;;;;;;;;5090232;28;20437;-62
2021/07/10 01:40:48;;;;;;;23.23;12.98;;;;;;;;;;5091924;28;20079;-62
2021/07/10 01:43:15;;;;;;;39.17;12.32;;;;;;;;;;5093502;28;20119;-62
2021/07/10 01:45:42;;;;;;;28.27;13.07;;;;;;;;;;5093762;28;20040;-62
2021/07/10 01:48:10;;;;;;;23.70;12.88;;;;;;;;;;5093577;28;20086;-62
2021/07/10 01:50:36;;;;;;;27.88;14.18;;;;;;;;;;5093876;28;20044;-62
2021/07/10 01:53:03;;;;;;;30.13;13.93;;;;;;;;;;5095832;28;20052;-62
2021/07/10 01:55:29;;;;;;;30.40;15.38;;;;;;;;;;5092090;28;20079;-62
2021/07/10 01:57:57;;;;;;;31.00;14.93;;;;;;;;;;5093375;28;20047;-62
2021/07/10 02:00:25;;;;;;;29.40;15.55;;;;;;;;;;5093481;28;20048;-62
2021/07/10 02:02:52;;;;;;;27.67;14.48;;;;;;;;;;5093439;28;20434;-62
2021/07/10 02:05:19;;;;;;;33.45;15.13;;;;;;;;;;5094084;28;20048;-62
2021/07/10 02:07:46;;;;;;;29.42;16.75;;;;;;;;;;5093481;28;20451;-62
2021/07/10 02:10:13;;;;;;;31.58;14.80;;;;;;;;;;5093092;28;20439;-62
2021/07/10 02:12:41;;;;;;;28.83;16.88;;;;;;;;;;5093121;28;20044;-62
2021/07/10 02:15:07;;;;;;;36.95;14.30;;;;;;;;;;5093173;28;20040;-62
2021/07/10 02:17:35;;;;;;;31.58;16.90;;;;;;;;;;5093207;28;20075;-62
2021/07/10 02:20:01;;;;;;;35.78;16.17;;;;;;;;;;5091054;28;20051;-62
2021/07/10 02:22:27;;;;;;;34.42;16.08;;;;;;;;;;5093141;28;20418;-62
2021/07/10 02:24:54;;;;;;;38.63;18.52;;;;;;;;;;5092566;28;20064;-62
2021/07/10 02:27:20;;;;;;;30.13;15.77;;;;;;;;;;5094686;28;20065;-62
2021/07/10 02:29:46;;;;;;;39.78;17.45;;;;;;;;;;5113326;28;20069;-61
2021/07/10 02:32:13;;;;;;;31.83;16.27;;;;;;;;;;5113955;28;20070;-62
2021/07/10 02:34:39;;;;;;;40.05;18.38;;;;;;;;;;5114489;28;20089;-62
2021/07/10 02:37:05;;;;;;;32.80;16.95;;;;;;;;;;5113008;28;20036;-61
2021/07/10 02:39:31;;;;;;;38.42;17.73;;;;;;;;;;5112622;28;20078;-61
2021/07/10 02:41:58;;;;;;;32.83;15.57;;;;;;;;;;5113129;28;20039;-61
2021/07/10 02:44:24;;;;;;;31.33;16.70;;;;;;;;;;5112993;28;20051;-62
2021/07/10 02:46:54;;;;;;;31.55;16.45;;;;;;;;;;5113833;28;20501;-62
2021/07/10 02:49:20;;;;;;;33.67;16.65;;;;;;;;;;5108963;28;20084;-61
2021/07/10 02:51:46;;;;;;;31.75;16.25;;;;;;;;;;5106292;28;20177;-61
2021/07/10 02:54:13;;;;;;;37.20;16.30;;;;;;;;;;5104823;28;20047;-62
2021/07/10 02:56:39;;;;;;;28.05;16.38;;;;;;;;;;5112697;28;20063;-61
2021/07/10 02:59:05;;;;;;;28.95;15.88;;;;;;;;;;5114326;28;20070;-62
2021/07/10 03:01:32;;;;;;;33.60;16.42;;;;;;;;;;5113214;28;20495;-61
2021/07/10 03:03:58;;;;;;;29.77;15.57;;;;;;;;;;5112546;28;20126;-62
2021/07/10 03:06:24;;;;;;;31.35;17.42;;;;;;;;;;5112460;28;20138;-62
2021/07/10 03:08:50;;;;;;;31.20;16.85;;;;;;;;;;5112226;28;20040;-62
2021/07/10 03:11:17;;;;;;;33.10;16.40;;;;;;;;;;5106266;28;20071;-62
2021/07/10 03:13:43;;;;;;;32.15;16.90;;;;;;;;;;5112053;28;20055;-62
2021/07/10 03:16:10;;;;;;;35.92;18.08;;;;;;;;;;5111662;28;20062;-62
2021/07/10 03:18:36;;;;;;;37.42;18.40;;;;;;;;;;5112106;28;20487;-62
2021/07/10 03:21:03;;;;;;;40.05;18.70;;;;;;;;;;5111324;28;20474;-62
2021/07/10 03:23:29;;;;;;;38.88;19.98;;;;;;;;;;5093111;28;20074;-62
2021/07/10 03:25:55;;;;;;;39.65;18.63;;;;;;;;;;5112987;28;20071;-62
2021/07/10 03:28:22;;;;;;;37.63;19.70;;;;;;;;;;5111092;28;20132;-62
2021/07/10 03:30:51;;;;;;;37.28;18.60;;;;;;;;;;5111205;28;20052;-62
2021/07/10 03:33:18;;;;;;;37.63;19.60;;;;;;;;;;5111301;28;20053;-62
2021/07/10 03:35:44;;;;;;;37.45;18.70;;;;;;;;;;5111473;28;20532;-62
2021/07/10 03:38:10;;;;;;;41.05;20.17;;;;;;;;;;5113206;28;20151;-62
2021/07/10 03:40:37;;;;;;;36.25;18.45;;;;;;;;;;5112874;28;20126;-62
2021/07/10 03:43:04;;;;;;;43.28;21.83;;;;;;;;;;5111687;28;20043;-62
2021/07/10 03:45:30;;;;;;;30.50;17.77;;;;;;;;;;5092003;28;20524;-62
2021/07/10 03:47:57;;;;;;;41.92;19.95;;;;;;;;;;5092129;28;20540;-62
2021/07/10 03:50:24;;;;;;;34.83;17.33;;;;;;;;;;5111382;28;20150;-62
2021/07/10 03:52:50;;;;;;;35.92;20.15;;;;;;;;;;5113714;28;20043;-62
2021/07/10 03:55:17;;;;;;;36.63;20.00;;;;;;;;;;5110230;28;20046;-62
2021/07/10 03:57:43;;;;;;;41.50;21.05;;;;;;;;;;5104344;28;20035;-62
2021/07/10 04:00:15;;;;;;;33.63;19.83;;;;;;;;;;5111546;28;20058;-62
2021/07/10 04:02:41;;;;;;;44.58;20.88;;;;;;;;;;5110269;28;20055;-62
2021/07/10 04:05:08;;;;;;;35.95;20.73;;;;;;;;;;5111936;28;20048;-62
2021/07/10 04:07:35;;;;;;;46.08;20.60;;;;;;;;;;5094139;28;20061;-62
2021/07/10 04:10:01;;;;;;;38.50;20.25;;;;;;;;;;5111479;28;20036;-62
2021/07/10 04:12:28;;;;;;;38.55;20.67;;;;;;;;;;5111401;28;20126;-62
2021/07/10 04:15:00;;;;;;;41.35;20.40;;;;;;;;;;5111183;28;20392;-62
2021/07/10 04:17:27;;;;;;;40.25;21.67;;;;;;;;;;5111322;28;20445;-62
2021/07/10 04:19:53;;;;;;;51.28;23.65;;;;;;;;;;5113303;28;20048;-62
2021/07/10 04:22:20;;;;;;;40.50;21.20;;;;;;;;;;5111271;28;20048;-62
2021/07/10 04:24:46;;;;;;;42.00;21.15;;;;;;;;;;5093006;28;20040;-62
2021/07/10 04:27:12;;;;;;;34.15;20.88;;;;;;;;;;5110968;28;20046;-62
2021/07/10 04:29:38;;;;;;;39.08;23.33;;;;;;;;;;5111454;28;20441;-62
2021/07/10 04:32:05;;;;;;;39.90;22.17;;;;;;;;;;5113090;28;20059;-62
2021/07/10 04:34:31;;;;;;;30.58;19.45;;;;;;;;;;5111593;28;20054;-62
2021/07/10 04:36:57;;;;;;;29.45;15.60;;;;;;;;;;5111041;28;20055;-62
2021/07/10 04:39:24;;;;;;;20.55;14.80;;;;;;;;;;5110974;28;20071;-62
2021/07/10 04:41:50;;;;;;;24.80;13.77;;;;;;;;;;5109725;28;20040;-62
2021/07/10 04:44:16;;;;;;;26.13;14.82;;;;;;;;;;5111576;28;20048;-62
2021/07/10 04:46:43;;;;;;;21.35;14.15;;;;;;;;;;5112955;28;20529;-62
2021/07/10 04:49:10;;;;;;;24.90;14.18;;;;;;;;;;5111228;28;20055;-62
2021/07/10 04:51:36;;;;;;;25.00;13.90;;;;;;;;;;5111065;28;20093;-62
2021/07/10 04:54:02;;;;;;;20.92;12.63;;;;;;;;;;5108712;28;20126;-62
2021/07/10 04:56:29;;;;;;;20.13;11.88;;;;;;;;;;5084869;28;20040;-62
2021/07/10 04:58:55;;;;;;;17.98;11.20;;;;;;;;;;5112215;28;20533;-61
2021/07/10 05:01:21;;;;;;;15.23;10.65;;;;;;;;;;5110805;28;20040;-63
2021/07/10 05:03:48;;;;;;;12.77;9.40;;;;;;;;;;5109127;28;20047;-62
2021/07/10 05:06:14;;;;;;;13.70;9.38;;;;;;;;;;5105032;28;20071;-62
2021/07/10 05:08:40;;;;;;;17.20;9.35;;;;;;;;;;5110963;28;20052;-62
2021/07/10 05:11:06;;;;;;;13.15;7.85;;;;;;;;;;5112792;28;20556;-62
2021/07/10 05:13:33;;;;;;;16.30;10.15;;;;;;;;;;5109944;28;20066;-62
2021/07/10 05:15:59;;;;;;;16.30;9.52;;;;;;;;;;5110750;28;20100;-62
2021/07/10 05:18:25;;;;;;;16.50;9.43;;;;;;;;;;5114291;28;20044;-62
2021/07/10 05:20:52;;;;;;;15.75;9.25;;;;;;;;;;5113683;28;20114;-62
2021/07/10 05:23:18;;;;;;;13.43;8.55;;;;;;;;;;5114901;28;20044;-62
2021/07/10 05:25:44;;;;;;;14.68;9.18;;;;;;;;;;5114377;28;20047;-62
2021/07/10 05:28:11;;;;;;;18.85;8.30;;;;;;;;;;5114475;28;20079;-62
2021/07/10 05:30:37;;;;;;;10.88;7.20;;;;;;;;;;5113926;28;20525;-62
2021/07/10 05:33:03;;;;;;;11.25;6.82;;;;;;;;;;5113120;28;20031;-62
2021/07/10 05:35:30;;;;;;;8.15;6.30;;;;;;;;;;5114565;28;20075;-62
2021/07/10 05:37:56;;;;;;;9.77;6.47;;;;;;;;;;5116213;28;20066;-62
2021/07/10 05:40:23;;;;;;;8.93;6.35;;;;;;;;;;5114128;28;20039;-62
2021/07/10 05:42:49;;;;;;;9.40;6.97;;;;;;;;;;5114266;28;20046;-62
2021/07/10 05:45:16;;;;;;;14.60;7.43;;;;;;;;;;5094263;28;20376;-62
2021/07/10 05:47:42;;;;;;;10.60;7.25;;;;;;;;;;5114260;28;20441;-62
2021/07/10 05:50:09;;;;;;;11.55;6.75;;;;;;;;;;5115481;28;20039;-62
2021/07/10 05:52:35;;;;;;;8.93;6.57;;;;;;;;;;5114813;28;20052;-62
2021/07/10 05:55:02;;;;;;;7.95;6.57;;;;;;;;;;5113813;28;20452;-62
2021/07/10 05:57:30;;;;;;;7.88;5.20;;;;;;;;;;5113789;28;20063;-62
2021/07/10 05:59:56;;;;;;;8.20;5.63;;;;;;;;;;5112762;28;20075;-62
2021/07/10 06:02:22;;;;;;;6.88;4.93;;;;;;;;;;5113641;28;20070;-62
2021/07/10 06:04:49;;;;;;;10.70;4.57;;;;;;;;;;5116066;28;20124;-62
2021/07/10 06:07:15;;;;;;;8.93;6.03;;;;;;;;;;5110385;27;20044;-62
2021/07/10 06:09:41;;;;;;;5.32;4.50;;;;;;;;;;5108558;28;20062;-62
2021/07/10 06:12:08;;;;;;;7.82;5.78;;;;;;;;;;5113001;28;20066;-62
2021/07/10 06:14:34;;;;;;;6.32;5.13;;;;;;;;;;5113950;28;20131;-62
2021/07/10 06:17:01;;;;;;;6.47;4.78;;;;;;;;;;5107918;28;20040;-62
2021/07/10 06:19:27;;;;;;;5.95;5.00;;;;;;;;;;5114160;28;20090;-62
2021/07/10 06:21:54;;;;;;;8.57;5.15;;;;;;;;;;5113512;28;20040;-61
2021/07/10 06:24:20;;;;;;;7.00;5.38;;;;;;;;;;5113302;28;20048;-61
2021/07/10 06:26:46;;;;;;;6.85;5.45;;;;;;;;;;5113357;28;20490;-61
2021/07/10 06:29:12;;;;;;;8.52;5.95;;;;;;;;;;5107411;28;20074;-61
2021/07/10 06:31:39;;;;;;;9.48;6.30;;;;;;;;;;5082476;28;20388;-61
2021/07/10 06:34:06;;;;;;;7.97;5.50;;;;;;;;;;5107036;28;20071;-61
2021/07/10 06:36:33;;;;;;;10.43;5.50;;;;;;;;;;5087898;28;20036;-61
2021/07/10 06:38:59;;;;;;;8.02;5.20;;;;;;;;;;5107740;28;20059;-61
2021/07/10 06:41:25;;;;;;;8.52;4.88;;;;;;;;;;5081266;28;20096;-61
2021/07/10 06:43:52;;;;;;;8.48;4.97;;;;;;;;;;5109472;28;20047;-61
2021/07/10 06:46:18;;;;;;;5.00;3.88;;;;;;;;;;5080824;28;20076;-62
2021/07/10 06:48:44;;;;;;;2.78;2.30;;;;;;;;;;5105438;28;20044;-62
2021/07/10 06:51:11;;;;;;;3.58;2.80;;;;;;;;;;5109567;28;20043;-62
2021/07/10 06:53:38;;;;;;;3.72;2.67;;;;;;;;;;5105117;28;20118;-62
2021/07/10 06:56:05;;;;;;;4.57;2.55;;;;;;;;;;5105605;28;20076;-61
2021/07/10 06:58:31;;;;;;;4.40;3.05;;;;;;;;;;5106968;28;20154;-62
2021/07/10 07:00:58;;;;;;;3.28;2.50;;;;;;;;;;5104379;28;20522;-62
2021/07/10 07:03:24;;;;;;;2.58;1.95;;;;;;;;;;5105384;28;20044;-62
2021/07/10 07:05:50;;;;;;;1.92;1.42;;;;;;;;;;5098875;28;20110;-64
2021/07/10 07:08:17;;;;;;;2.50;1.77;;;;;;;;;;5107145;28;20043;-62
2021/07/10 07:10:43;;;;;;;2.72;1.70;;;;;;;;;;5104954;28;20040;-62
2021/07/10 07:13:09;;;;;;;2.72;1.98;;;;;;;;;;5110618;28;20149;-62
2021/07/10 07:15:36;;;;;;;3.95;2.50;;;;;;;;;;5109619;28;20040;-62
2021/07/10 07:18:02;;;;;;;3.55;2.08;;;;;;;;;;5109779;28;20074;-62
2021/07/10 07:20:29;;;;;;;2.28;1.98;;;;;;;;;;5111497;28;20530;-62
2021/07/10 07:22:55;;;;;;;3.35;1.80;;;;;;;;;;5095201;28;20040;-62
2021/07/10 07:25:22;;;;;;;6.53;1.75;;;;;;;;;;5111044;28;20590;-62
2021/07/10 07:27:50;;;;;;;4.05;1.73;;;;;;;;;;5110892;28;20078;-62
2021/07/10 07:30:16;;;;;;;2.65;1.55;;;;;;;;;;5111409;28;20046;-62
2021/07/10 07:32:43;;;;;;;2.13;1.40;;;;;;;;;;5111923;28;20075;-62
2021/07/10 07:35:11;;;;;;;3.78;1.50;;;;;;;;;;5094865;28;20046;-63
2021/07/10 07:37:37;;;;;;;2.10;1.50;;;;;;;;;;5112289;28;20399;-62
2021/07/10 07:40:05;;;;;;;2.38;1.60;;;;;;;;;;5110351;28;20066;-62
2021/07/10 07:42:31;;;;;;;3.40;1.58;;;;;;;;;;5111252;28;20081;-62
2021/07/10 07:44:57;;;;;;;2.47;1.58;;;;;;;;;;5111550;28;20036;-62
2021/07/10 07:47:24;;;;;;;12.43;2.83;;;;;;;;;;5111216;28;20047;-62
2021/07/10 07:49:50;;;;;;;5.60;1.83;;;;;;;;;;5113303;28;20069;-62
2021/07/10 07:52:17;;;;;;;63.53;6.18;;;;;;;;;;5110971;28;20045;-62
2021/07/10 07:54:43;;;;;;;2.75;1.77;;;;;;;;;;5110829;28;20075;-62
2021/07/10 07:57:09;;;;;;;17.10;2.22;;;;;;;;;;5109846;28;20043;-62
2021/07/10 07:59:36;;;;;;;2.28;1.58;;;;;;;;;;5111216;28;20495;-62
2021/07/10 08:02:02;;;;;;;1.80;1.40;;;;;;;;;;5108843;28;20445;-62
2021/07/10 08:04:28;;;;;;;2.88;1.55;;;;;;;;;;5101171;27;20056;-62
2021/07/10 08:06:55;;;;;;;1.85;1.48;;;;;;;;;;5092564;28;20046;-61
2021/07/10 08:09:21;;;;;;;3.35;1.60;;;;;;;;;;5110328;28;20086;-60
2021/07/10 08:11:47;;;;;;;2.35;1.85;;;;;;;;;;5110368;28;20047;-61
2021/07/10 08:14:14;;;;;;;2.13;1.75;;;;;;;;;;5111099;28;20483;-60
2021/07/10 08:16:40;;;;;;;3.50;1.67;;;;;;;;;;5112403;28;20499;-60
2021/07/10 08:19:06;;;;;;;6.03;1.92;;;;;;;;;;5110399;28;20122;-60
2021/07/10 08:21:33;;;;;;;1.98;1.70;;;;;;;;;;5092131;28;20405;-61
2021/07/10 08:24:00;;;;;;;5.93;2.05;;;;;;;;;;5110331;28;20048;-60
2021/07/10 08:26:27;;;;;;;4.93;1.73;;;;;;;;;;5110408;28;20501;-60
2021/07/10 08:28:54;;;;;;;2.15;1.70;;;;;;;;;;5112497;28;20057;-61
2021/07/10 08:31:21;;;;;;;6.28;1.67;;;;;;;;;;5110575;28;20062;-61
2021/07/10 08:33:47;;;;;;;3.75;2.00;;;;;;;;;;5110182;28;20039;-61
2021/07/10 08:36:13;;;;;;;2.33;1.85;;;;;;;;;;5110236;28;20042;-60
2021/07/10 08:38:40;;;;;;;5.22;2.08;;;;;;;;;;5110127;28;20837;-59
2021/07/10 08:41:07;;;;;;;2.30;1.50;;;;;;;;;;5111586;28;20052;-61
2021/07/10 08:43:33;;;;;;;3.65;1.90;;;;;;;;;;5109131;28;20590;-60
2021/07/10 08:46:02;;;;;;;4.47;1.40;;;;;;;;;;5110102;28;20059;-61
2021/07/10 08:48:34;;;;;;;1.70;1.20;;;;;;;;;;5110136;28;20040;-59
2021/07/10 08:51:05;;;;;;;2.45;1.52;;;;;;;;;;5111876;28;20301;-61
2021/07/10 08:53:32;;;;;;;2.30;1.80;;;;;;;;;;5114651;28;20043;-60
2021/07/10 08:55:58;;;;;;;1.65;1.27;;;;;;;;;;5115710;28;20055;-61
2021/07/10 08:58:24;;;;;;;1.42;1.10;;;;;;;;;;5114206;28;20063;-60
2021/07/10 09:00:51;;;;;;;1.98;1.30;;;;;;;;;;5114670;28;20116;-60
2021/07/10 09:03:18;;;;;;;1.65;0.95;;;;;;;;;;5112343;28;20388;-60
2021/07/10 09:05:45;;;;;;;2.85;1.60;;;;;;;;;;5113631;28;20044;-60
2021/07/10 09:08:19;;;;;;;1.55;0.93;;;;;;;;;;5113429;28;20415;-61
2021/07/10 09:11:07;;;;;;;1.77;1.30;;;;;;;;;;5112177;28;20040;-61
2021/07/10 09:13:37;;;;;;;9.32;3.40;;;;;;;;;;5111026;28;20546;-61
2021/07/10 09:16:11;;;;;;;5.03;1.50;;;;;;;;;;5110493;28;20036;-60
2021/07/10 09:18:48;;;;;;;3.38;1.40;;;;;;;;;;5111930;28;20067;-62
2021/07/10 09:21:53;;;;;;;2.40;1.50;;;;;;;;;;5112494;28;20039;-60
2021/07/10 09:24:25;;;;;;;1.90;1.50;;;;;;;;;;5027491;28;20074;-61
2021/07/10 09:26:53;;;;;;;2.45;1.50;;;;;;;;;;5031904;28;20061;-60
2021/07/10 09:29:22;;;;;;;2.35;1.80;;;;;;;;;;5016682;28;20061;-60
2021/07/10 09:31:54;;;;;;;3.65;1.92;;;;;;;;;;5032819;28;20084;-60
2021/07/10 09:34:21;;;;;;;2.10;1.80;;;;;;;;;;5032077;28;20127;-60
2021/07/10 09:36:58;;;;;;;2.97;1.65;;;;;;;;;;5032126;28;20056;-60
2021/07/10 09:39:30;;;;;;;2.58;1.70;;;;;;;;;;5030826;28;20050;-60
2021/07/10 09:41:57;;;;;;;2.25;1.70;;;;;;;;;;5028449;28;20568;-61
2021/07/10 09:44:23;;;;;;;2.10;1.50;;;;;;;;;;5029053;28;20053;-60
2021/07/10 09:46:49;;;;;;;2.22;1.60;;;;;;;;;;5031426;28;20097;-60
2021/07/10 09:49:26;;;;;;;7.35;1.70;;;;;;;;;;5024509;28;20054;-61
2021/07/10 09:52:03;;;;;;;2.08;1.80;;;;;;;;;;5029885;28;20053;-61
2021/07/10 09:54:30;;;;;;;2.33;1.55;;;;;;;;;;5045348;28;20487;-60
2021/07/10 09:57:00;;;;;;;3.72;1.80;;;;;;;;;;5109583;28;20052;-60
2021/07/10 09:59:26;;;;;;;1.83;1.30;;;;;;;;;;5111155;28;20450;-61
2021/07/10 10:01:52;;;;;;;4.30;1.40;;;;;;;;;;5110063;28;20473;-61
2021/07/10 10:04:24;;;;;;;2.22;1.40;;;;;;;;;;5101408;28;20062;-61
2021/07/10 10:06:51;;;;;;;4.28;1.40;;;;;;;;;;5097770;28;20072;-61
2021/07/10 10:09:20;;;;;;;1.73;1.33;;;;;;;;;;5108252;28;20059;-61
2021/07/10 10:12:08;;;;;;;2.03;1.20;;;;;;;;;;5105003;28;20074;-60
2021/07/10 10:14:35;;;;;;;2.25;1.48;;;;;;;;;;5092185;28;20497;-60
2021/07/10 10:17:02;;;;;;;3.03;1.85;;;;;;;;;;5089950;28;20078;-60
2021/07/10 10:19:33;;;;;;;2.22;1.90;;;;;;;;;;5089512;28;20040;-60
2021/07/10 10:22:00;;;;;;;1.90;1.67;;;;;;;;;;5101251;28;20039;-60
2021/07/10 10:24:28;;;;;;;2.40;1.67;;;;;;;;;;5108672;28;20102;-60
2021/07/10 10:26:57;;;;;;;2.70;1.90;;;;;;;;;;5108519;28;20043;-61
2021/07/10 10:29:24;;;;;;;3.88;1.98;;;;;;;;;;5092158;28;20067;-61
2021/07/10 10:31:51;;;;;;;2.50;1.98;;;;;;;;;;5113134;28;20119;-61
2021/07/10 10:34:17;;;;;;;4.07;1.95;;;;;;;;;;5110580;28;20073;-61
2021/07/10 10:36:45;;;;;;;2.45;1.88;;;;;;;;;;5112299;28;20054;-60
2021/07/10 10:39:14;;;;;;;3.13;1.98;;;;;;;;;;5112170;28;20136;-60
2021/07/10 10:41:41;;;;;;;2.67;1.75;;;;;;;;;;5112368;28;20078;-60
2021/07/10 10:44:08;;;;;;;4.35;2.25;;;;;;;;;;5113438;28;20478;-60
2021/07/10 10:46:44;;;;;;;3.20;2.10;;;;;;;;;;5111565;28;20074;-61
2021/07/10 10:49:30;;;;;;;7.93;2.70;;;;;;;;;;5112309;28;20046;-61
2021/07/10 10:52:15;;;;;;;2.65;2.28;;;;;;;;;;5112075;28;20067;-60
2021/07/10 10:54:50;;;;;;;2.70;2.35;;;;;;;;;;5111931;28;20039;-59
2021/07/10 10:57:16;;;;;;;;;;;;;;;;;;5112234;28;20101;-60
2021/07/10 10:59:43;;;;;;;4.97;3.60;;;;;;;;;;5103851;27;19938;-60
2021/07/10 11:02:27;;;;;;;3.25;2.40;;;;;;;;;;5113297;28;20503;-60
2021/07/10 11:04:57;;;;;;;;;;;;;;;;;;5114099;28;20070;-59
2021/07/10 11:07:23;;;;;;;2.65;2.20;;;;;;;;;;5111311;28;19923;-60
2021/07/10 11:10:08;;;;;;;2.60;2.28;;;;;;;;;;5111920;28;20035;-61
2021/07/10 11:12:51;;;;;;;5.35;2.85;;;;;;;;;;5110257;28;20439;-60
2021/07/10 11:15:27;;;;;;;3.00;2.55;;;;;;;;;;5091795;28;20044;-61
2021/07/10 11:17:54;;;;;;;6.60;2.65;;;;;;;;;;5111221;28;20071;-60
2021/07/10 11:20:39;;;;;;;3.85;3.13;;;;;;;;;;5111745;28;20490;-61
2021/07/10 11:23:06;;;;;;;3.45;2.50;;;;;;;;;;5108596;28;20441;-59
2021/07/10 11:25:52;;;;;;;3.33;2.72;;;;;;;;;;5111473;28;20077;-60
2021/07/10 11:28:19;;;;;;;2.95;2.47;;;;;;;;;;5111038;28;20079;-60
2021/07/10 11:30:47;;;;;;;2.58;2.20;;;;;;;;;;5111040;28;20039;-60
2021/07/10 11:33:13;;;;;;;2.33;1.90;;;;;;;;;;5110670;28;20085;-62
2021/07/10 11:35:44;;;;;;;2.22;1.77;;;;;;;;;;5110858;28;20048;-60
2021/07/10 11:38:30;;;;;;;2.97;2.15;;;;;;;;;;5112792;28;20055;-61
2021/07/10 11:41:03;;;;;;;2.92;2.15;;;;;;;;;;5113011;28;20070;-59
2021/07/10 11:43:37;;;;;;;2.25;1.80;;;;;;;;;;5110845;28;20044;-60
2021/07/10 11:46:04;;;;;;;2.42;1.98;;;;;;;;;;5110826;28;20075;-61
2021/07/10 11:48:31;;;;;;;6.95;1.80;;;;;;;;;;5111090;28;20044;-60
2021/07/10 11:51:02;;;;;;;2.72;1.70;;;;;;;;;;5109309;28;20555;-60
2021/07/10 11:53:28;;;;;;;2.65;2.08;;;;;;;;;;5110997;28;20071;-60
2021/07/10 11:55:57;;;;;;;3.30;1.90;;;;;;;;;;5112686;28;20043;-61
2021/07/10 11:58:24;;;;;;;4.95;2.70;;;;;;;;;;5110590;28;20044;-60
2021/07/10 12:00:50;;;;;;;2.40;2.10;;;;;;;;;;5110594;28;20044;-61
2021/07/10 12:03:16;;;;;;;2.80;2.20;;;;;;;;;;5110204;28;20048;-60
2021/07/10 12:05:43;;;;;;;2.65;2.45;;;;;;;;;;5110481;28;20039;-60
2021/07/10 12:08:09;;;;;;;8.38;3.13;;;;;;;;;;5111798;28;20094;-60
2021/07/10 12:10:37;;;;;;;3.25;2.72;;;;;;;;;;5111460;28;20403;-61
2021/07/10 12:13:07;;;;;;;4.03;2.70;;;;;;;;;;5110530;28;20054;-60
2021/07/10 12:15:35;;;;;;;3.97;2.80;;;;;;;;;;5110108;28;20040;-61
2021/07/10 12:18:02;;;;;;;3.40;3.05;;;;;;;;;;5110812;28;20039;-60
2021/07/10 12:20:30;;;;;;;5.25;2.58;;;;;;;;;;5110714;28;20407;-60
2021/07/10 12:22:59;;;;;;;4.22;2.80;;;;;;;;;;5112157;28;20093;-60
2021/07/10 12:25:27;;;;;;;3.83;2.92;;;;;;;;;;5109811;28;20044;-60
2021/07/10 12:27:54;;;;;;;5.43;2.75;;;;;;;;;;5110197;28;20445;-59
2021/07/10 12:30:34;;;;;;;3.10;2.80;;;;;;;;;;5108536;28;20082;-61
2021/07/10 12:33:00;;;;;;;3.33;2.70;;;;;;;;;;5090840;28;20043;-60
2021/07/10 12:35:27;;;;;;;4.43;2.55;;;;;;;;;;5110031;28;20095;-60
2021/07/10 12:37:53;;;;;;;3.47;2.78;;;;;;;;;;5112552;28;20052;-61
2021/07/10 12:40:19;;;;;;;2.92;2.55;;;;;;;;;;5109823;28;20126;-59
2021/07/10 12:42:55;;;;;;;2.92;2.30;;;;;;;;;;5110115;28;20079;-60
2021/07/10 12:45:21;;;;;;;3.22;2.38;;;;;;;;;;5109695;28;20491;-60
2021/07/10 12:47:58;;;;;;;3.00;2.67;;;;;;;;;;5109971;28;20063;-59
2021/07/10 12:50:24;;;;;;;3.38;2.72;;;;;;;;;;5120409;28;20051;-60
2021/07/10 12:52:58;;;;;;;3.65;2.60;;;;;;;;;;5112264;28;20075;-60
2021/07/10 12:55:33;;;;;;;3.60;3.13;;;;;;;;;;5091975;28;20047;-60
2021/07/10 12:58:00;;;;;;;4.20;2.95;;;;;;;;;;5110050;28;20072;-60
2021/07/10 13:00:28;;;;;;;3.45;2.50;;;;;;;;;;5109507;28;20496;-60
2021/07/10 13:02:55;;;;;;;4.28;2.70;;;;;;;;;;5110144;28;20493;-59
2021/07/10 13:05:28;;;;;;;3.75;2.30;;;;;;;;;;5109753;28;20086;-60
2021/07/10 13:08:07;;;;;;;2.95;2.42;;;;;;;;;;5112213;28;20104;-61
2021/07/10 13:10:34;;;;;;;5.25;3.17;;;;;;;;;;5110618;28;20075;-61
2021/07/10 13:13:01;;;;;;;3.90;2.45;;;;;;;;;;5109773;28;20505;-61
2021/07/10 13:15:30;;;;;;;3.17;2.38;;;;;;;;;;5109658;28;20048;-61
2021/07/10 13:18:06;;;;;;;3.92;2.40;;;;;;;;;;5110237;28;20063;-61
2021/07/10 13:20:33;;;;;;;2.80;2.25;;;;;;;;;;5109257;28;20434;-60
2021/07/10 13:22:59;;;;;;;3.95;2.53;;;;;;;;;;5093431;28;20078;-61
2021/07/10 13:25:37;;;;;;;2.70;2.20;;;;;;;;;;5109254;28;20044;-61
2021/07/10 13:28:22;;;;;;;4.00;2.20;;;;;;;;;;5109650;28;20052;-59
2021/07/10 13:30:49;;;;;;;4.05;2.28;;;;;;;;;;5109707;28;20407;-61
2021/07/10 13:33:27;;;;;;;2.95;2.40;;;;;;;;;;5109835;28;20434;-61
2021/07/10 13:36:03;;;;;;;3.50;2.25;;;;;;;;;;5109724;28;20418;-61
2021/07/10 13:38:32;;;;;;;11.80;2.65;;;;;;;;;;5093866;28;20141;-60
2021/07/10 13:41:10;;;;;;;5.97;2.55;;;;;;;;;;5097211;28;20081;-60
2021/07/10 13:43:37;;;;;;;3.05;2.53;;;;;;;;;;5112576;28;20593;-60
2021/07/10 13:46:10;;;;;;;4.82;2.75;;;;;;;;;;5112971;28;20039;-61
2021/07/10 13:48:36;;;;;;;4.30;2.42;;;;;;;;;;5094506;28;20042;-59
2021/07/10 13:51:04;;;;;;;3.90;2.35;;;;;;;;;;5113123;28;20067;-60
2021/07/10 13:53:30;;;;;;;7.57;2.58;;;;;;;;;;5112920;28;20439;-61
2021/07/10 13:55:57;;;;;;;2.55;2.00;;;;;;;;;;5115659;28;20050;-60
2021/07/10 13:58:27;;;;;;;6.95;2.30;;;;;;;;;;5112809;28;20488;-59
2021/07/10 14:00:54;;;;;;;3.53;2.70;;;;;;;;;;5112708;28;20489;-60
2021/07/10 14:03:21;;;;;;;3.78;2.38;;;;;;;;;;5112886;28;20479;-60
2021/07/10 14:05:48;;;;;;;5.72;1.98;;;;;;;;;;5112768;28;20089;-61
2021/07/10 14:08:15;;;;;;;5.57;2.75;;;;;;;;;;5095682;28;20487;-60
2021/07/10 14:10:43;;;;;;;2.90;1.90;;;;;;;;;;5114212;28;20044;-61
2021/07/10 14:13:14;;;;;;;3.58;2.00;;;;;;;;;;5112317;28;20097;-60
2021/07/10 14:15:42;;;;;;;4.70;2.20;;;;;;;;;;5112614;28;20067;-60
2021/07/10 14:18:08;;;;;;;7.28;2.20;;;;;;;;;;5112722;28;20134;-60
2021/07/10 14:20:35;;;;;;;2.72;2.22;;;;;;;;;;5096525;28;20520;-61
2021/07/10 14:23:01;;;;;;;2.60;2.00;;;;;;;;;;5114875;28;20044;-61
2021/07/10 14:25:30;;;;;;;2.28;1.80;;;;;;;;;;5112436;28;20048;-60
2021/07/10 14:27:56;;;;;;;2.50;2.13;;;;;;;;;;5110768;28;20086;-59
2021/07/10 14:30:24;;;;;;;4.68;2.10;;;;;;;;;;5112092;28;20173;-61
2021/07/10 14:32:51;;;;;;;3.30;2.15;;;;;;;;;;5112301;28;20036;-61
2021/07/10 14:35:18;;;;;;;2.88;2.10;;;;;;;;;;5113424;28;20047;-61
2021/07/10 14:37:45;;;;;;;4.05;2.13;;;;;;;;;;5096307;28;20650;-61